sensor_id;sensor_type;location;lat;lon;timestamp;P1;durP1;ratioP1;P2;durP2;ratioP2
16478;SDS011;8350;52.316;10.530;2022-07-29T00:00:35;3.72;;;1.75;;
16478;SDS011;8350;52.316;10.530;2022-07-29T00:03:02;2.83;;;1.35;;
16478;SDS011;8350;52.316;10.530;2022-07-29T00:05:30;2.88;;;1.17;;
16478;SDS011;8350;52.316;10.530;2022-07-29T00:07:59;2.95;;;1.60;;
16478;SDS011;8350;52.316;10.530;2022-07-29T00:10:30;3.42;;;1.58;;
16478;SDS011;8350;52.316;10.530;2022-07-29T00:12:57;2.70;;;1.10;;
16478;SDS011;8350;52.316;10.530;2022-07-29T00:15:30;3.97;;;1.48;;
16478;SDS011;8350;52.316;10.530;2022-07-29T00:18:00;2.17;;;1.30;;
16478;SDS011;8350;52.316;10.530;2022-07-29T00:20:29;5.25;;;1.40;;
16478;SDS011;8350;52.316;10.530;2022-07-29T00:23:03;1.88;;;1.42;;
16478;SDS011;8350;52.316;10.530;2022-07-29T00:25:34;3.05;;;1.40;;
16478;SDS011;8350;52.316;10.530;2022-07-29T00:28:08;2.10;;;1.48;;
16478;SDS011;8350;52.316;10.530;2022-07-29T00:30:36;3.30;;;1.38;;
16478;SDS011;8350;52.316;10.530;2022-07-29T00:33:03;2.10;;;1.17;;
16478;SDS011;8350;52.316;10.530;2022-07-29T00:35:33;1.52;;;1.30;;
16478;SDS011;8350;52.316;10.530;2022-07-29T00:38:14;1.42;;;1.23;;
16478;SDS011;8350;52.316;10.530;2022-07-29T00:40:46;1.52;;;1.17;;
16478;SDS011;8350;52.316;10.530;2022-07-29T00:43:13;2.70;;;1.30;;
16478;SDS011;8350;52.316;10.530;2022-07-29T00:45:43;1.17;;;1.02;;
16478;SDS011;8350;52.316;10.530;2022-07-29T00:48:10;3.90;;;1.15;;
16478;SDS011;8350;52.316;10.530;2022-07-29T00:50:43;3.88;;;1.60;;
16478;SDS011;8350;52.316;10.530;2022-07-29T00:53:12;3.58;;;1.45;;
16478;SDS011;8350;52.316;10.530;2022-07-29T00:55:42;2.08;;;1.45;;
16478;SDS011;8350;52.316;10.530;2022-07-29T00:58:12;2.40;;;1.63;;
16478;SDS011;8350;52.316;10.530;2022-07-29T01:00:53;1.50;;;1.05;;
16478;SDS011;8350;52.316;10.530;2022-07-29T01:03:22;4.40;;;1.48;;
16478;SDS011;8350;52.316;10.530;2022-07-29T01:05:49;2.30;;;1.20;;
16478;SDS011;8350;52.316;10.530;2022-07-29T01:08:16;1.80;;;1.48;;
16478;SDS011;8350;52.316;10.530;2022-07-29T01:10:44;3.25;;;1.30;;
16478;SDS011;8350;52.316;10.530;2022-07-29T01:13:14;2.58;;;1.20;;
16478;SDS011;8350;52.316;10.530;2022-07-29T01:15:56;4.43;;;1.45;;
16478;SDS011;8350;52.316;10.530;2022-07-29T01:18:28;2.90;;;1.48;;
16478;SDS011;8350;52.316;10.530;2022-07-29T01:23:59;2.00;;;1.30;;
16478;SDS011;8350;52.316;10.530;2022-07-29T01:26:58;5.03;;;1.48;;
16478;SDS011;8350;52.316;10.530;2022-07-29T01:29:32;4.65;;;1.65;;
16478;SDS011;8350;52.316;10.530;2022-07-29T01:32:07;3.20;;;1.35;;
16478;SDS011;8350;52.316;10.530;2022-07-29T01:34:45;5.43;;;1.27;;
16478;SDS011;8350;52.316;10.530;2022-07-29T01:37:15;1.60;;;1.35;;
16478;SDS011;8350;52.316;10.530;2022-07-29T01:39:45;3.63;;;1.40;;
16478;SDS011;8350;52.316;10.530;2022-07-29T01:42:18;2.35;;;1.23;;
16478;SDS011;8350;52.316;10.530;2022-07-29T01:45:00;1.60;;;1.20;;
16478;SDS011;8350;52.316;10.530;2022-07-29T01:47:33;3.00;;;1.30;;
16478;SDS011;8350;52.316;10.530;2022-07-29T01:50:08;2.17;;;1.30;;
16478;SDS011;8350;52.316;10.530;2022-07-29T01:52:39;2.58;;;1.50;;
16478;SDS011;8350;52.316;10.530;2022-07-29T01:55:20;2.08;;;1.27;;
16478;SDS011;8350;52.316;10.530;2022-07-29T01:57:51;3.15;;;1.52;;
16478;SDS011;8350;52.316;10.530;2022-07-29T02:00:22;3.25;;;1.42;;
16478;SDS011;8350;52.316;10.530;2022-07-29T02:06:03;2.45;;;1.20;;
16478;SDS011;8350;52.316;10.530;2022-07-29T02:08:33;2.53;;;1.30;;
16478;SDS011;8350;52.316;10.530;2022-07-29T02:11:03;4.03;;;1.42;;
16478;SDS011;8350;52.316;10.530;2022-07-29T02:13:36;1.80;;;1.60;;
16478;SDS011;8350;52.316;10.530;2022-07-29T02:16:18;3.45;;;1.50;;
16478;SDS011;8350;52.316;10.530;2022-07-29T02:21:49;2.55;;;1.58;;
16478;SDS011;8350;52.316;10.530;2022-07-29T02:24:24;1.75;;;1.38;;
16478;SDS011;8350;52.316;10.530;2022-07-29T02:26:52;2.53;;;1.23;;
16478;SDS011;8350;52.316;10.530;2022-07-29T02:29:31;1.35;;;1.25;;
16478;SDS011;8350;52.316;10.530;2022-07-29T02:32:03;5.45;;;2.30;;
16478;SDS011;8350;52.316;10.530;2022-07-29T02:34:57;2.80;;;1.45;;
16478;SDS011;8350;52.316;10.530;2022-07-29T02:37:28;3.65;;;1.35;;
16478;SDS011;8350;52.316;10.530;2022-07-29T02:39:57;5.15;;;1.60;;
16478;SDS011;8350;52.316;10.530;2022-07-29T02:42:26;2.90;;;1.40;;
16478;SDS011;8350;52.316;10.530;2022-07-29T02:44:54;2.10;;;1.67;;
16478;SDS011;8350;52.316;10.530;2022-07-29T02:47:24;3.67;;;1.95;;
16478;SDS011;8350;52.316;10.530;2022-07-29T02:50:04;1.80;;;1.40;;
16478;SDS011;8350;52.316;10.530;2022-07-29T02:52:42;2.33;;;1.80;;
16478;SDS011;8350;52.316;10.530;2022-07-29T02:55:22;3.17;;;1.90;;
16478;SDS011;8350;52.316;10.530;2022-07-29T02:57:59;2.60;;;1.48;;
16478;SDS011;8350;52.316;10.530;2022-07-29T03:00:30;4.40;;;1.65;;
16478;SDS011;8350;52.316;10.530;2022-07-29T03:03:07;3.60;;;1.67;;
16478;SDS011;8350;52.316;10.530;2022-07-29T03:05:39;2.78;;;1.63;;
16478;SDS011;8350;52.316;10.530;2022-07-29T03:08:09;3.15;;;1.52;;
16478;SDS011;8350;52.316;10.530;2022-07-29T03:10:39;3.30;;;1.65;;
16478;SDS011;8350;52.316;10.530;2022-07-29T03:13:11;5.85;;;2.20;;
16478;SDS011;8350;52.316;10.530;2022-07-29T03:15:45;3.20;;;1.60;;
16478;SDS011;8350;52.316;10.530;2022-07-29T03:18:15;2.10;;;1.58;;
16478;SDS011;8350;52.316;10.530;2022-07-29T03:20:42;2.80;;;1.75;;
16478;SDS011;8350;52.316;10.530;2022-07-29T03:26:13;1.42;;;1.23;;
16478;SDS011;8350;52.316;10.530;2022-07-29T03:28:53;3.25;;;2.00;;
16478;SDS011;8350;52.316;10.530;2022-07-29T03:31:21;3.33;;;1.80;;
16478;SDS011;8350;52.316;10.530;2022-07-29T03:39:15;3.65;;;1.52;;
16478;SDS011;8350;52.316;10.530;2022-07-29T03:41:44;2.78;;;1.60;;
16478;SDS011;8350;52.316;10.530;2022-07-29T03:44:13;2.80;;;1.70;;
16478;SDS011;8350;52.316;10.530;2022-07-29T03:46:42;3.88;;;1.65;;
16478;SDS011;8350;52.316;10.530;2022-07-29T03:49:12;5.53;;;1.63;;
16478;SDS011;8350;52.316;10.530;2022-07-29T03:51:51;4.18;;;1.88;;
16478;SDS011;8350;52.316;10.530;2022-07-29T03:54:20;4.35;;;2.05;;
16478;SDS011;8350;52.316;10.530;2022-07-29T03:56:49;2.05;;;1.77;;
16478;SDS011;8350;52.316;10.530;2022-07-29T03:59:25;4.03;;;1.67;;
16478;SDS011;8350;52.316;10.530;2022-07-29T04:02:04;4.47;;;1.55;;
16478;SDS011;8350;52.316;10.530;2022-07-29T04:04:38;2.28;;;1.80;;
16478;SDS011;8350;52.316;10.530;2022-07-29T04:07:10;5.13;;;1.85;;
16478;SDS011;8350;52.316;10.530;2022-07-29T04:09:52;3.03;;;1.73;;
16478;SDS011;8350;52.316;10.530;2022-07-29T04:12:19;3.45;;;1.75;;
16478;SDS011;8350;52.316;10.530;2022-07-29T04:14:53;3.08;;;1.95;;
16478;SDS011;8350;52.316;10.530;2022-07-29T04:17:24;4.40;;;2.10;;
16478;SDS011;8350;52.316;10.530;2022-07-29T04:20:09;3.28;;;2.10;;
16478;SDS011;8350;52.316;10.530;2022-07-29T04:22:39;4.03;;;1.80;;
16478;SDS011;8350;52.316;10.530;2022-07-29T04:25:22;4.72;;;1.80;;
16478;SDS011;8350;52.316;10.530;2022-07-29T04:27:50;5.90;;;2.10;;
16478;SDS011;8350;52.316;10.530;2022-07-29T04:30:45;4.55;;;2.08;;
16478;SDS011;8350;52.316;10.530;2022-07-29T04:33:13;5.65;;;1.98;;
16478;SDS011;8350;52.316;10.530;2022-07-29T04:35:44;2.47;;;1.98;;
16478;SDS011;8350;52.316;10.530;2022-07-29T04:43:51;3.60;;;2.35;;
16478;SDS011;8350;52.316;10.530;2022-07-29T04:46:25;2.50;;;2.03;;
16478;SDS011;8350;52.316;10.530;2022-07-29T04:48:53;3.25;;;1.80;;
16478;SDS011;8350;52.316;10.530;2022-07-29T04:51:27;5.78;;;2.15;;
16478;SDS011;8350;52.316;10.530;2022-07-29T04:53:54;5.45;;;2.25;;
16478;SDS011;8350;52.316;10.530;2022-07-29T04:56:21;3.53;;;2.03;;
16478;SDS011;8350;52.316;10.530;2022-07-29T04:58:56;1.85;;;1.70;;
16478;SDS011;8350;52.316;10.530;2022-07-29T05:01:24;6.85;;;2.47;;
16478;SDS011;8350;52.316;10.530;2022-07-29T05:03:51;3.70;;;2.00;;
16478;SDS011;8350;52.316;10.530;2022-07-29T05:06:20;3.17;;;1.95;;
16478;SDS011;8350;52.316;10.530;2022-07-29T05:08:48;4.07;;;2.35;;
16478;SDS011;8350;52.316;10.530;2022-07-29T05:11:18;4.30;;;2.20;;
16478;SDS011;8350;52.316;10.530;2022-07-29T05:13:45;2.90;;;1.98;;
16478;SDS011;8350;52.316;10.530;2022-07-29T05:16:12;3.58;;;2.17;;
16478;SDS011;8350;52.316;10.530;2022-07-29T05:18:39;4.28;;;2.30;;
16478;SDS011;8350;52.316;10.530;2022-07-29T05:21:07;3.88;;;2.20;;
16478;SDS011;8350;52.316;10.530;2022-07-29T05:23:43;5.05;;;2.70;;
16478;SDS011;8350;52.316;10.530;2022-07-29T05:26:17;2.78;;;2.17;;
16478;SDS011;8350;52.316;10.530;2022-07-29T05:28:45;2.97;;;2.22;;
16478;SDS011;8350;52.316;10.530;2022-07-29T05:31:25;6.78;;;2.88;;
16478;SDS011;8350;52.316;10.530;2022-07-29T05:34:17;4.75;;;2.50;;
16478;SDS011;8350;52.316;10.530;2022-07-29T05:36:46;4.03;;;2.67;;
16478;SDS011;8350;52.316;10.530;2022-07-29T05:42:29;5.55;;;2.47;;
16478;SDS011;8350;52.316;10.530;2022-07-29T05:50:57;5.60;;;2.70;;
16478;SDS011;8350;52.316;10.530;2022-07-29T05:53:43;5.65;;;2.83;;
16478;SDS011;8350;52.316;10.530;2022-07-29T05:56:10;4.30;;;2.70;;
16478;SDS011;8350;52.316;10.530;2022-07-29T06:05:07;3.22;;;2.38;;
16478;SDS011;8350;52.316;10.530;2022-07-29T06:08:00;5.35;;;2.40;;
16478;SDS011;8350;52.316;10.530;2022-07-29T06:10:35;3.33;;;2.65;;
16478;SDS011;8350;52.316;10.530;2022-07-29T06:13:15;3.13;;;2.70;;
16478;SDS011;8350;52.316;10.530;2022-07-29T06:15:45;4.55;;;2.75;;
16478;SDS011;8350;52.316;10.530;2022-07-29T06:18:33;6.40;;;3.10;;
16478;SDS011;8350;52.316;10.530;2022-07-29T06:21:16;5.28;;;2.70;;
16478;SDS011;8350;52.316;10.530;2022-07-29T06:23:44;6.47;;;3.28;;
16478;SDS011;8350;52.316;10.530;2022-07-29T06:26:11;3.75;;;3.08;;
16478;SDS011;8350;52.316;10.530;2022-07-29T06:28:46;3.47;;;2.70;;
16478;SDS011;8350;52.316;10.530;2022-07-29T06:31:35;4.68;;;3.15;;
16478;SDS011;8350;52.316;10.530;2022-07-29T06:34:09;3.22;;;2.90;;
16478;SDS011;8350;52.316;10.530;2022-07-29T06:36:40;8.35;;;3.42;;
16478;SDS011;8350;52.316;10.530;2022-07-29T06:39:15;7.50;;;3.08;;
16478;SDS011;8350;52.316;10.530;2022-07-29T06:41:50;4.25;;;3.03;;
16478;SDS011;8350;52.316;10.530;2022-07-29T06:44:28;4.03;;;2.97;;
16478;SDS011;8350;52.316;10.530;2022-07-29T06:52:43;4.32;;;2.90;;
16478;SDS011;8350;52.316;10.530;2022-07-29T06:55:18;4.63;;;3.17;;
16478;SDS011;8350;52.316;10.530;2022-07-29T06:57:51;3.55;;;3.00;;
16478;SDS011;8350;52.316;10.530;2022-07-29T07:00:18;3.40;;;3.03;;
16478;SDS011;8350;52.316;10.530;2022-07-29T07:02:54;5.43;;;3.13;;
16478;SDS011;8350;52.316;10.530;2022-07-29T07:05:22;7.03;;;3.20;;
16478;SDS011;8350;52.316;10.530;2022-07-29T07:10:21;6.93;;;3.33;;
16478;SDS011;8350;52.316;10.530;2022-07-29T07:12:47;7.93;;;3.20;;
16478;SDS011;8350;52.316;10.530;2022-07-29T07:15:16;6.97;;;3.08;;
16478;SDS011;8350;52.316;10.530;2022-07-29T07:18:01;4.70;;;3.38;;
16478;SDS011;8350;52.316;10.530;2022-07-29T07:20:34;5.18;;;2.65;;
16478;SDS011;8350;52.316;10.530;2022-07-29T07:23:04;5.20;;;2.95;;
16478;SDS011;8350;52.316;10.530;2022-07-29T07:25:45;3.50;;;3.10;;
16478;SDS011;8350;52.316;10.530;2022-07-29T07:28:14;9.07;;;3.28;;
16478;SDS011;8350;52.316;10.530;2022-07-29T07:30:42;3.83;;;3.35;;
16478;SDS011;8350;52.316;10.530;2022-07-29T07:33:15;7.60;;;3.28;;
16478;SDS011;8350;52.316;10.530;2022-07-29T07:35:44;5.25;;;3.38;;
16478;SDS011;8350;52.316;10.530;2022-07-29T07:38:12;3.95;;;2.45;;
16478;SDS011;8350;52.316;10.530;2022-07-29T07:40:43;8.27;;;2.80;;
16478;SDS011;8350;52.316;10.530;2022-07-29T07:43:20;3.70;;;2.70;;
16478;SDS011;8350;52.316;10.530;2022-07-29T07:45:47;6.50;;;2.85;;
16478;SDS011;8350;52.316;10.530;2022-07-29T07:48:15;7.18;;;3.15;;
16478;SDS011;8350;52.316;10.530;2022-07-29T07:50:42;4.93;;;2.97;;
16478;SDS011;8350;52.316;10.530;2022-07-29T07:53:09;5.38;;;2.90;;
16478;SDS011;8350;52.316;10.530;2022-07-29T07:55:42;4.40;;;2.45;;
16478;SDS011;8350;52.316;10.530;2022-07-29T07:58:12;5.70;;;3.20;;
16478;SDS011;8350;52.316;10.530;2022-07-29T08:00:39;6.88;;;3.10;;
16478;SDS011;8350;52.316;10.530;2022-07-29T08:03:08;3.75;;;3.35;;
16478;SDS011;8350;52.316;10.530;2022-07-29T08:05:40;6.05;;;3.30;;
16478;SDS011;8350;52.316;10.530;2022-07-29T08:08:07;5.82;;;3.53;;
16478;SDS011;8350;52.316;10.530;2022-07-29T08:10:36;7.63;;;2.97;;
16478;SDS011;8350;52.316;10.530;2022-07-29T08:13:21;7.18;;;3.72;;
16478;SDS011;8350;52.316;10.530;2022-07-29T08:15:51;4.47;;;2.85;;
16478;SDS011;8350;52.316;10.530;2022-07-29T08:18:24;5.03;;;2.72;;
16478;SDS011;8350;52.316;10.530;2022-07-29T08:20:53;5.22;;;3.20;;
16478;SDS011;8350;52.316;10.530;2022-07-29T08:23:21;3.85;;;3.28;;
16478;SDS011;8350;52.316;10.530;2022-07-29T08:25:54;5.30;;;3.03;;
16478;SDS011;8350;52.316;10.530;2022-07-29T08:28:21;4.25;;;2.90;;
16478;SDS011;8350;52.316;10.530;2022-07-29T08:30:48;4.22;;;2.55;;
16478;SDS011;8350;52.316;10.530;2022-07-29T08:33:15;6.30;;;3.35;;
16478;SDS011;8350;52.316;10.530;2022-07-29T08:35:43;5.45;;;2.72;;
16478;SDS011;8350;52.316;10.530;2022-07-29T08:38:12;6.95;;;3.03;;
16478;SDS011;8350;52.316;10.530;2022-07-29T08:40:39;4.75;;;2.88;;
16478;SDS011;8350;52.316;10.530;2022-07-29T08:43:06;5.05;;;2.80;;
16478;SDS011;8350;52.316;10.530;2022-07-29T08:45:41;6.93;;;3.17;;
16478;SDS011;8350;52.316;10.530;2022-07-29T08:48:10;5.68;;;2.92;;
16478;SDS011;8350;52.316;10.530;2022-07-29T08:50:38;7.05;;;2.72;;
16478;SDS011;8350;52.316;10.530;2022-07-29T08:53:09;5.50;;;2.70;;
16478;SDS011;8350;52.316;10.530;2022-07-29T08:55:41;7.57;;;3.25;;
16478;SDS011;8350;52.316;10.530;2022-07-29T08:58:09;6.60;;;2.80;;
16478;SDS011;8350;52.316;10.530;2022-07-29T09:00:39;4.63;;;2.40;;
16478;SDS011;8350;52.316;10.530;2022-07-29T09:03:09;5.10;;;2.67;;
16478;SDS011;8350;52.316;10.530;2022-07-29T09:05:41;5.78;;;3.20;;
16478;SDS011;8350;52.316;10.530;2022-07-29T09:08:12;7.22;;;2.60;;
16478;SDS011;8350;52.316;10.530;2022-07-29T09:10:39;5.22;;;2.60;;
16478;SDS011;8350;52.316;10.530;2022-07-29T09:13:16;4.53;;;2.88;;
16478;SDS011;8350;52.316;10.530;2022-07-29T09:15:45;4.70;;;2.75;;
16478;SDS011;8350;52.316;10.530;2022-07-29T09:18:25;5.72;;;3.22;;
16478;SDS011;8350;52.316;10.530;2022-07-29T09:21:04;6.05;;;2.75;;
16478;SDS011;8350;52.316;10.530;2022-07-29T09:24:02;6.32;;;2.85;;
16478;SDS011;8350;52.316;10.530;2022-07-29T09:26:34;4.72;;;3.30;;
16478;SDS011;8350;52.316;10.530;2022-07-29T09:29:12;6.85;;;3.03;;
16478;SDS011;8350;52.316;10.530;2022-07-29T09:31:41;4.78;;;2.80;;
16478;SDS011;8350;52.316;10.530;2022-07-29T09:34:13;8.13;;;3.17;;
16478;SDS011;8350;52.316;10.530;2022-07-29T09:36:45;4.80;;;3.10;;
16478;SDS011;8350;52.316;10.530;2022-07-29T09:42:05;5.38;;;2.78;;
16478;SDS011;8350;52.316;10.530;2022-07-29T09:47:42;4.45;;;2.70;;
16478;SDS011;8350;52.316;10.530;2022-07-29T09:50:14;5.43;;;2.63;;
16478;SDS011;8350;52.316;10.530;2022-07-29T09:52:44;4.72;;;2.72;;
16478;SDS011;8350;52.316;10.530;2022-07-29T09:55:15;5.90;;;2.63;;
16478;SDS011;8350;52.316;10.530;2022-07-29T09:57:42;5.10;;;2.58;;
16478;SDS011;8350;52.316;10.530;2022-07-29T10:00:10;4.45;;;2.83;;
16478;SDS011;8350;52.316;10.530;2022-07-29T10:02:40;6.18;;;2.80;;
16478;SDS011;8350;52.316;10.530;2022-07-29T10:05:18;5.05;;;2.97;;
16478;SDS011;8350;52.316;10.530;2022-07-29T10:07:47;5.18;;;2.60;;
16478;SDS011;8350;52.316;10.530;2022-07-29T10:10:20;3.33;;;2.35;;
16478;SDS011;8350;52.316;10.530;2022-07-29T10:12:49;5.15;;;2.75;;
16478;SDS011;8350;52.316;10.530;2022-07-29T10:15:17;4.40;;;2.90;;
16478;SDS011;8350;52.316;10.530;2022-07-29T10:17:45;4.75;;;2.72;;
16478;SDS011;8350;52.316;10.530;2022-07-29T10:20:13;9.45;;;3.42;;
16478;SDS011;8350;52.316;10.530;2022-07-29T10:22:40;19.60;;;4.65;;
16478;SDS011;8350;52.316;10.530;2022-07-29T10:25:09;6.60;;;2.58;;
16478;SDS011;8350;52.316;10.530;2022-07-29T10:27:37;7.25;;;3.28;;
16478;SDS011;8350;52.316;10.530;2022-07-29T10:30:05;4.75;;;3.05;;
16478;SDS011;8350;52.316;10.530;2022-07-29T10:32:39;3.20;;;2.13;;
16478;SDS011;8350;52.316;10.530;2022-07-29T10:38:25;3.63;;;2.60;;
16478;SDS011;8350;52.316;10.530;2022-07-29T10:41:01;4.28;;;2.40;;
16478;SDS011;8350;52.316;10.530;2022-07-29T10:43:56;5.05;;;2.65;;
16478;SDS011;8350;52.316;10.530;2022-07-29T10:46:27;4.45;;;2.55;;
16478;SDS011;8350;52.316;10.530;2022-07-29T10:49:04;5.90;;;2.60;;
16478;SDS011;8350;52.316;10.530;2022-07-29T10:51:54;3.90;;;2.47;;
16478;SDS011;8350;52.316;10.530;2022-07-29T10:54:43;4.75;;;2.70;;
16478;SDS011;8350;52.316;10.530;2022-07-29T10:57:19;6.03;;;2.63;;
16478;SDS011;8350;52.316;10.530;2022-07-29T10:59:50;5.10;;;3.03;;
16478;SDS011;8350;52.316;10.530;2022-07-29T11:02:43;7.18;;;3.20;;
16478;SDS011;8350;52.316;10.530;2022-07-29T11:05:13;4.50;;;2.88;;
16478;SDS011;8350;52.316;10.530;2022-07-29T11:10:43;4.60;;;2.65;;
16478;SDS011;8350;52.316;10.530;2022-07-29T11:13:09;9.45;;;3.78;;
16478;SDS011;8350;52.316;10.530;2022-07-29T11:18:20;3.67;;;2.60;;
16478;SDS011;8350;52.316;10.530;2022-07-29T11:20:48;5.30;;;3.15;;
16478;SDS011;8350;52.316;10.530;2022-07-29T11:23:23;5.28;;;2.40;;
16478;SDS011;8350;52.316;10.530;2022-07-29T11:28:49;4.07;;;2.67;;
16478;SDS011;8350;52.316;10.530;2022-07-29T11:31:31;5.13;;;2.30;;
16478;SDS011;8350;52.316;10.530;2022-07-29T11:34:15;3.92;;;2.40;;
16478;SDS011;8350;52.316;10.530;2022-07-29T11:39:47;5.22;;;2.55;;
16478;SDS011;8350;52.316;10.530;2022-07-29T11:42:46;2.63;;;2.13;;
16478;SDS011;8350;52.316;10.530;2022-07-29T11:45:18;2.85;;;2.35;;
16478;SDS011;8350;52.316;10.530;2022-07-29T11:48:16;4.53;;;2.30;;
16478;SDS011;8350;52.316;10.530;2022-07-29T11:50:43;3.80;;;2.50;;
16478;SDS011;8350;52.316;10.530;2022-07-29T11:53:11;8.15;;;2.47;;
16478;SDS011;8350;52.316;10.530;2022-07-29T11:55:42;4.70;;;2.42;;
16478;SDS011;8350;52.316;10.530;2022-07-29T11:58:12;3.50;;;2.63;;
16478;SDS011;8350;52.316;10.530;2022-07-29T12:00:39;5.72;;;2.65;;
16478;SDS011;8350;52.316;10.530;2022-07-29T12:03:08;3.58;;;2.35;;
16478;SDS011;8350;52.316;10.530;2022-07-29T12:05:42;6.65;;;2.50;;
16478;SDS011;8350;52.316;10.530;2022-07-29T12:08:11;4.82;;;2.15;;
16478;SDS011;8350;52.316;10.530;2022-07-29T12:10:41;4.07;;;2.90;;
16478;SDS011;8350;52.316;10.530;2022-07-29T12:13:12;3.13;;;2.55;;
16478;SDS011;8350;52.316;10.530;2022-07-29T12:15:51;3.50;;;2.63;;
16478;SDS011;8350;52.316;10.530;2022-07-29T12:18:19;5.15;;;2.67;;
16478;SDS011;8350;52.316;10.530;2022-07-29T12:20:50;3.55;;;2.50;;
16478;SDS011;8350;52.316;10.530;2022-07-29T12:23:24;4.18;;;2.38;;
16478;SDS011;8350;52.316;10.530;2022-07-29T12:25:51;4.85;;;2.63;;
16478;SDS011;8350;52.316;10.530;2022-07-29T12:28:18;4.47;;;2.38;;
16478;SDS011;8350;52.316;10.530;2022-07-29T12:30:47;5.63;;;2.75;;
16478;SDS011;8350;52.316;10.530;2022-07-29T12:33:19;4.13;;;2.50;;
16478;SDS011;8350;52.316;10.530;2022-07-29T12:35:48;5.20;;;2.38;;
16478;SDS011;8350;52.316;10.530;2022-07-29T12:38:18;3.80;;;2.13;;
16478;SDS011;8350;52.316;10.530;2022-07-29T12:40:46;6.25;;;2.78;;
16478;SDS011;8350;52.316;10.530;2022-07-29T12:43:15;5.30;;;2.75;;
16478;SDS011;8350;52.316;10.530;2022-07-29T12:45:43;2.78;;;2.50;;
16478;SDS011;8350;52.316;10.530;2022-07-29T12:48:11;6.53;;;2.83;;
16478;SDS011;8350;52.316;10.530;2022-07-29T12:50:53;4.25;;;2.58;;
16478;SDS011;8350;52.316;10.530;2022-07-29T12:53:30;5.05;;;2.58;;
16478;SDS011;8350;52.316;10.530;2022-07-29T12:55:59;4.18;;;2.70;;
16478;SDS011;8350;52.316;10.530;2022-07-29T12:58:30;3.45;;;2.47;;
16478;SDS011;8350;52.316;10.530;2022-07-29T13:01:21;5.53;;;2.80;;
16478;SDS011;8350;52.316;10.530;2022-07-29T13:03:55;4.15;;;2.80;;
16478;SDS011;8350;52.316;10.530;2022-07-29T13:09:11;8.23;;;2.72;;
16478;SDS011;8350;52.316;10.530;2022-07-29T13:11:45;3.95;;;2.60;;
16478;SDS011;8350;52.316;10.530;2022-07-29T13:14:14;3.15;;;2.67;;
16478;SDS011;8350;52.316;10.530;2022-07-29T13:17:25;4.82;;;2.90;;
16478;SDS011;8350;52.316;10.530;2022-07-29T13:20:15;4.55;;;2.25;;
16478;SDS011;8350;52.316;10.530;2022-07-29T13:23:02;5.38;;;2.58;;
16478;SDS011;8350;52.316;10.530;2022-07-29T13:25:31;5.85;;;2.55;;
16478;SDS011;8350;52.316;10.530;2022-07-29T13:28:04;5.10;;;2.83;;
16478;SDS011;8350;52.316;10.530;2022-07-29T13:30:36;3.60;;;2.38;;
16478;SDS011;8350;52.316;10.530;2022-07-29T13:33:04;3.63;;;2.20;;
16478;SDS011;8350;52.316;10.530;2022-07-29T13:35:31;3.55;;;2.50;;
16478;SDS011;8350;52.316;10.530;2022-07-29T13:37:59;5.38;;;2.50;;
16478;SDS011;8350;52.316;10.530;2022-07-29T13:47:32;2.70;;;2.50;;
16478;SDS011;8350;52.316;10.530;2022-07-29T13:50:12;5.82;;;2.40;;
16478;SDS011;8350;52.316;10.530;2022-07-29T13:52:51;3.95;;;2.28;;
16478;SDS011;8350;52.316;10.530;2022-07-29T13:55:27;3.58;;;2.58;;
16478;SDS011;8350;52.316;10.530;2022-07-29T14:10:59;3.20;;;2.30;;
16478;SDS011;8350;52.316;10.530;2022-07-29T14:13:36;4.07;;;2.30;;
16478;SDS011;8350;52.316;10.530;2022-07-29T14:25:45;3.47;;;2.50;;
16478;SDS011;8350;52.316;10.530;2022-07-29T14:32:41;2.78;;;2.10;;
16478;SDS011;8350;52.316;10.530;2022-07-29T14:35:12;6.57;;;2.53;;
16478;SDS011;8350;52.316;10.530;2022-07-29T14:40:41;4.82;;;2.42;;
16478;SDS011;8350;52.316;10.530;2022-07-29T14:43:18;3.20;;;2.47;;
16478;SDS011;8350;52.316;10.530;2022-07-29T15:00:22;4.18;;;2.40;;
16478;SDS011;8350;52.316;10.530;2022-07-29T15:02:52;3.70;;;2.30;;
16478;SDS011;8350;52.316;10.530;2022-07-29T15:05:55;4.38;;;2.42;;
16478;SDS011;8350;52.316;10.530;2022-07-29T15:08:45;4.05;;;2.58;;
16478;SDS011;8350;52.316;10.530;2022-07-29T15:17:27;3.38;;;2.20;;
16478;SDS011;8350;52.316;10.530;2022-07-29T15:19:54;4.00;;;2.35;;
16478;SDS011;8350;52.316;10.530;2022-07-29T15:22:23;3.35;;;2.17;;
16478;SDS011;8350;52.316;10.530;2022-07-29T15:24:59;4.15;;;2.78;;
16478;SDS011;8350;52.316;10.530;2022-07-29T15:27:28;7.38;;;2.45;;
16478;SDS011;8350;52.316;10.530;2022-07-29T15:29:56;3.97;;;2.20;;
16478;SDS011;8350;52.316;10.530;2022-07-29T15:32:24;1.98;;;1.80;;
16478;SDS011;8350;52.316;10.530;2022-07-29T15:35:02;4.05;;;1.80;;
16478;SDS011;8350;52.316;10.530;2022-07-29T15:37:37;3.55;;;2.20;;
16478;SDS011;8350;52.316;10.530;2022-07-29T15:40:07;3.15;;;2.13;;
16478;SDS011;8350;52.316;10.530;2022-07-29T15:42:44;5.38;;;2.60;;
16478;SDS011;8350;52.316;10.530;2022-07-29T15:45:10;3.47;;;2.15;;
16478;SDS011;8350;52.316;10.530;2022-07-29T15:47:37;3.22;;;2.47;;
16478;SDS011;8350;52.316;10.530;2022-07-29T15:50:09;2.45;;;2.10;;
16478;SDS011;8350;52.316;10.530;2022-07-29T15:52:46;5.25;;;2.35;;
16478;SDS011;8350;52.316;10.530;2022-07-29T15:55:14;6.18;;;2.65;;
16478;SDS011;8350;52.316;10.530;2022-07-29T15:57:43;5.70;;;2.35;;
16478;SDS011;8350;52.316;10.530;2022-07-29T16:00:13;3.28;;;2.45;;
16478;SDS011;8350;52.316;10.530;2022-07-29T16:05:15;2.97;;;2.13;;
16478;SDS011;8350;52.316;10.530;2022-07-29T16:07:42;4.80;;;2.40;;
16478;SDS011;8350;52.316;10.530;2022-07-29T16:10:15;4.22;;;2.38;;
16478;SDS011;8350;52.316;10.530;2022-07-29T16:12:50;2.90;;;2.47;;
16478;SDS011;8350;52.316;10.530;2022-07-29T16:15:27;4.15;;;2.05;;
16478;SDS011;8350;52.316;10.530;2022-07-29T16:18:00;4.10;;;2.53;;
16478;SDS011;8350;52.316;10.530;2022-07-29T16:20:28;3.55;;;2.15;;
16478;SDS011;8350;52.316;10.530;2022-07-29T16:22:56;8.63;;;3.17;;
16478;SDS011;8350;52.316;10.530;2022-07-29T16:25:23;4.93;;;3.08;;
16478;SDS011;8350;52.316;10.530;2022-07-29T16:27:59;5.63;;;2.50;;
16478;SDS011;8350;52.316;10.530;2022-07-29T16:30:26;7.13;;;2.97;;
16478;SDS011;8350;52.316;10.530;2022-07-29T16:32:54;6.50;;;3.05;;
16478;SDS011;8350;52.316;10.530;2022-07-29T16:35:23;6.47;;;2.90;;
16478;SDS011;8350;52.316;10.530;2022-07-29T16:37:51;5.10;;;3.08;;
16478;SDS011;8350;52.316;10.530;2022-07-29T16:40:20;5.68;;;3.00;;
16478;SDS011;8350;52.316;10.530;2022-07-29T16:43:01;6.22;;;2.40;;
16478;SDS011;8350;52.316;10.530;2022-07-29T16:45:48;5.53;;;2.55;;
16478;SDS011;8350;52.316;10.530;2022-07-29T16:48:34;3.75;;;2.58;;
16478;SDS011;8350;52.316;10.530;2022-07-29T16:51:08;6.30;;;2.88;;
16478;SDS011;8350;52.316;10.530;2022-07-29T16:53:45;5.57;;;2.58;;
16478;SDS011;8350;52.316;10.530;2022-07-29T16:56:12;5.68;;;2.40;;
16478;SDS011;8350;52.316;10.530;2022-07-29T16:58:38;3.75;;;2.30;;
16478;SDS011;8350;52.316;10.530;2022-07-29T17:01:06;6.07;;;2.45;;
16478;SDS011;8350;52.316;10.530;2022-07-29T17:03:33;7.90;;;2.20;;
16478;SDS011;8350;52.316;10.530;2022-07-29T17:05:59;4.32;;;2.38;;
16478;SDS011;8350;52.316;10.530;2022-07-29T17:08:27;4.03;;;2.28;;
16478;SDS011;8350;52.316;10.530;2022-07-29T17:10:55;5.53;;;2.33;;
16478;SDS011;8350;52.316;10.530;2022-07-29T17:16:00;4.75;;;2.95;;
16478;SDS011;8350;52.316;10.530;2022-07-29T17:18:26;5.70;;;2.45;;
16478;SDS011;8350;52.316;10.530;2022-07-29T17:20:53;4.82;;;2.50;;
16478;SDS011;8350;52.316;10.530;2022-07-29T17:23:21;5.25;;;2.45;;
16478;SDS011;8350;52.316;10.530;2022-07-29T17:25:56;7.10;;;2.50;;
16478;SDS011;8350;52.316;10.530;2022-07-29T17:28:23;5.10;;;2.40;;
16478;SDS011;8350;52.316;10.530;2022-07-29T17:30:50;4.68;;;2.45;;
16478;SDS011;8350;52.316;10.530;2022-07-29T17:33:17;4.32;;;2.47;;